Time,TemperatureF,DewpointF,PressureIn,WindDirection,WindDirectionDegrees,WindSpeedMPH,WindSpeedGustMPH,Humidity,HourlyPrecipIn,Conditions,Clouds,dailyrainin,SoftwareType,DateUTC
2013-01-23 00:03:00,4.7,-1.5,29.44,West,270,2.0,20.0,75,0.00,,,0.00,Weather View 32 v70,2013-01-23 05:03:00,
2013-01-23 00:08:00,4.8,-1.7,29.44,WNW,292,1.0,20.0,74,0.00,,,0.00,Weather View 32 v70,2013-01-23 05:08:00,
2013-01-23 00:13:00,4.8,-2.2,29.44,NNW,337,10.0,20.0,72,0.00,,,0.00,Weather View 32 v70,2013-01-23 05:13:00,
2013-01-23 00:18:00,4.4,0.1,29.44,North,360,3.0,20.0,82,0.00,,,0.00,Weather View 32 v70,2013-01-23 05:18:00,
2013-01-23 00:23:00,3.9,0.7,29.44,NNW,337,6.0,20.0,86,0.00,,,0.00,Weather View 32 v70,2013-01-23 05:23:00,
2013-01-23 00:28:00,3.2,0.7,29.45,NNE,22,0.0,20.0,89,0.00,,,0.00,Weather View 32 v70,2013-01-23 05:28:00,
2013-01-23 00:33:00,2.4,0.6,29.45,NNE,22,5.0,15.0,92,0.00,,,0.00,Weather View 32 v70,2013-01-23 05:33:00,
2013-01-23 00:38:00,2.1,0.3,29.45,North,360,4.0,15.0,92,0.00,,,0.00,Weather View 32 v70,2013-01-23 05:38:00,
2013-01-23 00:43:00,1.8,0.7,29.45,NNW,337,2.0,15.0,95,0.00,,,0.00,Weather View 32 v70,2013-01-23 05:43:00,
2013-01-23 00:48:00,1.4,0.5,29.45,North,360,0.0,15.0,96,0.00,,,0.00,Weather View 32 v70,2013-01-23 05:48:00,
2013-01-23 00:53:00,1.3,0.6,29.45,NNE,22,4.0,15.0,97,0.00,,,0.00,Weather View 32 v70,2013-01-23 05:53:00,
2013-01-23 00:58:00,1.0,0.6,29.45,NNW,337,0.0,15.0,98,0.00,,,0.00,Weather View 32 v70,2013-01-23 05:58:00,
2013-01-23 01:03:00,0.9,0.9,29.45,NW,315,3.0,15.0,100,0.00,,,0.00,Weather View 32 v70,2013-01-23 06:03:00,
2013-01-23 01:08:00,0.8,0.8,29.45,North,360,4.0,15.0,100,0.00,,,0.00,Weather View 32 v70,2013-01-23 06:08:00,
2013-01-23 01:13:00,0.6,0.6,29.45,NNW,337,3.0,15.0,100,0.00,,,0.00,Weather View 32 v70,2013-01-23 06:13:00,
2013-01-23 01:18:00,0.6,0.6,29.45,North,360,0.0,13.0,100,0.00,,,0.00,Weather View 32 v70,2013-01-23 06:18:00,
2013-01-23 01:23:00,0.6,0.4,29.45,North,360,2.0,13.0,99,0.00,,,0.00,Weather View 32 v70,2013-01-23 06:23:00,
2013-01-23 01:28:00,0.6,0.0,29.45,NNE,22,5.0,13.0,97,0.00,,,0.00,Weather View 32 v70,2013-01-23 06:28:00,
2013-01-23 01:34:00,0.4,-0.7,29.45,SE,135,0.0,10.0,95,0.00,,,0.00,Weather View 32 v70,2013-01-23 06:34:00,
2013-01-23 01:39:00,0.4,-1.1,29.45,ENE,67,1.0,10.0,93,0.00,,,0.00,Weather View 32 v70,2013-01-23 06:39:00,
2013-01-23 01:44:00,0.2,-1.8,29.45,North,360,4.0,10.0,91,0.00,,,0.00,Weather View 32 v70,2013-01-23 06:44:00,
2013-01-23 01:49:00,0.0,-2.2,29.45,NNE,22,2.0,8.0,90,0.00,,,0.00,Weather View 32 v70,2013-01-23 06:49:00,
2013-01-23 01:54:00,-0.3,-2.5,29.45,WNW,292,1.0,8.0,90,0.00,,,0.00,Weather View 32 v70,2013-01-23 06:54:00,
2013-01-23 01:59:00,-0.6,-2.8,29.46,NW,315,0.0,8.0,90,0.00,,,0.00,Weather View 32 v70,2013-01-23 06:59:00,
2013-01-23 02:04:00,-1.0,-3.2,29.46,North,360,1.0,7.0,90,0.00,,,0.00,Weather View 32 v70,2013-01-23 07:04:00,
2013-01-23 02:09:00,-1.2,-3.6,29.46,North,360,0.0,8.0,89,0.00,,,0.00,Weather View 32 v70,2013-01-23 07:09:00,
2013-01-23 02:14:00,-1.2,-3.6,29.46,WNW,292,4.0,12.0,89,0.00,,,0.00,Weather View 32 v70,2013-01-23 07:14:00,
2013-01-23 02:19:00,-1.2,-3.9,29.48,WNW,292,4.0,12.0,88,0.00,,,0.00,Weather View 32 v70,2013-01-23 07:19:00,
2013-01-23 02:24:00,-1.1,-4.0,29.48,West,270,3.0,12.0,87,0.00,,,0.00,Weather View 32 v70,2013-01-23 07:24:00,
2013-01-23 02:29:00,-1.3,-4.0,29.48,NNW,337,3.0,12.0,88,0.00,,,0.00,Weather View 32 v70,2013-01-23 07:29:00,
2013-01-23 02:34:00,-1.3,-4.5,29.48,NNW,337,1.0,12.0,86,0.00,,,0.00,Weather View 32 v70,2013-01-23 07:34:00,
2013-01-23 02:39:00,-1.2,-4.9,29.49,NNW,337,4.0,12.0,84,0.00,,,0.00,Weather View 32 v70,2013-01-23 07:39:00,
2013-01-23 02:44:00,-1.4,-4.8,29.49,WNW,292,1.0,12.0,85,0.00,,,0.00,Weather View 32 v70,2013-01-23 07:44:00,
2013-01-23 02:49:00,-1.8,-4.7,29.49,North,360,0.0,12.0,87,0.00,,,0.00,Weather View 32 v70,2013-01-23 07:49:00,
2013-01-23 02:54:00,-2.2,-4.6,29.49,WNW,292,6.0,12.0,89,0.00,,,0.00,Weather View 32 v70,2013-01-23 07:54:00,
2013-01-23 02:59:00,-2.4,-4.4,29.49,NNW,337,7.0,12.0,91,0.00,,,0.00,Weather View 32 v70,2013-01-23 07:59:00,
2013-01-23 03:04:00,-2.7,-4.7,29.49,NNW,337,0.0,12.0,91,0.00,,,0.00,Weather View 32 v70,2013-01-23 08:04:00,
2013-01-23 03:09:00,-2.9,-4.9,29.49,NW,315,1.0,12.0,91,0.00,,,0.00,Weather View 32 v70,2013-01-23 08:09:00,
2013-01-23 03:14:00,-3.1,-4.8,29.49,North,360,6.0,12.0,92,0.00,,,0.00,Weather View 32 v70,2013-01-23 08:14:00,
2013-01-23 03:19:00,-3.0,-4.7,29.49,NW,315,1.0,10.0,92,0.00,,,0.00,Weather View 32 v70,2013-01-23 08:19:00,
2013-01-23 03:24:00,-3.0,-4.7,29.49,WNW,292,4.0,10.0,92,0.00,,,0.00,Weather View 32 v70,2013-01-23 08:24:00,
2013-01-23 03:29:00,-3.2,-4.9,29.49,WNW,292,2.0,10.0,92,0.00,,,0.00,Weather View 32 v70,2013-01-23 08:29:00,
2013-01-23 03:34:00,-3.3,-5.0,29.49,NNW,337,11.0,11.0,92,0.00,,,0.00,Weather View 32 v70,2013-01-23 08:34:00,
2013-01-23 03:39:00,-3.4,-5.1,29.49,NNW,337,3.0,11.0,92,0.00,,,0.00,Weather View 32 v70,2013-01-23 08:39:00,
2013-01-23 03:44:00,-3.6,-5.3,29.49,NNW,337,5.0,11.0,92,0.00,,,0.00,Weather View 32 v70,2013-01-23 08:44:00,
2013-01-23 03:49:00,-3.6,-5.1,29.49,NNW,337,4.0,11.0,93,0.00,,,0.00,Weather View 32 v70,2013-01-23 08:49:00,
2013-01-23 03:55:00,-3.8,-5.1,29.49,NW,315,2.0,11.0,94,0.00,,,0.00,Weather View 32 v70,2013-01-23 08:55:00,
2013-01-23 04:00:00,-3.9,-5.0,29.49,NW,315,2.0,11.0,95,0.00,,,0.00,Weather View 32 v70,2013-01-23 09:00:00,
2013-01-23 04:05:00,-4.1,-4.9,29.49,NW,315,5.0,11.0,96,0.00,,,0.00,Weather View 32 v70,2013-01-23 09:05:00,
2013-01-23 04:10:00,-4.1,-4.9,29.49,WNW,292,0.0,11.0,96,0.00,,,0.00,Weather View 32 v70,2013-01-23 09:10:00,
2013-01-23 04:15:00,-4.1,-4.9,29.50,WSW,247,0.0,11.0,96,0.00,,,0.00,Weather View 32 v70,2013-01-23 09:15:00,
2013-01-23 04:20:00,-4.4,-5.5,29.49,WNW,292,0.0,11.0,95,0.00,,,0.00,Weather View 32 v70,2013-01-23 09:20:00,
2013-01-23 04:25:00,-4.6,-5.4,29.50,WSW,247,0.0,11.0,96,0.00,,,0.00,Weather View 32 v70,2013-01-23 09:25:00,
2013-01-23 04:30:00,-4.7,-5.5,29.50,WSW,247,0.0,11.0,96,0.00,,,0.00,Weather View 32 v70,2013-01-23 09:30:00,
2013-01-23 04:35:00,-4.9,-5.5,29.50,WSW,247,0.0,11.0,97,0.00,,,0.00,Weather View 32 v70,2013-01-23 09:35:00,
2013-01-23 04:40:00,-5.3,-5.9,29.50,WNW,292,0.0,11.0,97,0.00,,,0.00,Weather View 32 v70,2013-01-23 09:40:00,
2013-01-23 04:45:00,-5.6,-6.2,29.50,West,270,1.0,11.0,97,0.00,,,0.00,Weather View 32 v70,2013-01-23 09:45:00,
2013-01-23 04:50:00,-5.8,-6.2,29.50,WNW,292,6.0,7.0,98,0.00,,,0.00,Weather View 32 v70,2013-01-23 09:50:00,
2013-01-23 05:00:00,-5.3,-5.7,29.50,WSW,247,3.0,9.0,98,0.00,,,0.00,Weather View 32 v70,2013-01-23 10:00:00,
2013-01-23 05:05:00,-5.3,-5.7,29.50,WNW,292,6.0,9.0,98,0.00,,,0.00,Weather View 32 v70,2013-01-23 10:05:00,
2013-01-23 05:10:00,-5.6,-6.0,29.50,WNW,292,5.0,9.0,98,0.00,,,0.00,Weather View 32 v70,2013-01-23 10:10:00,
2013-01-23 05:15:00,-5.6,-6.0,29.50,WNW,292,3.0,9.0,98,0.00,,,0.00,Weather View 32 v70,2013-01-23 10:15:00,
2013-01-23 05:20:00,-5.7,-6.1,29.49,WSW,247,2.0,9.0,98,0.00,,,0.00,Weather View 32 v70,2013-01-23 10:20:00,
2013-01-23 05:25:00,-6.0,-6.4,29.49,WNW,292,3.0,9.0,98,0.00,,,0.00,Weather View 32 v70,2013-01-23 10:25:00,
2013-01-23 05:30:00,-6.0,-6.4,29.50,WNW,292,0.0,9.0,98,0.00,,,0.00,Weather View 32 v70,2013-01-23 10:30:00,
2013-01-23 05:35:00,-6.0,-6.4,29.50,NNW,337,0.0,9.0,98,0.00,,,0.00,Weather View 32 v70,2013-01-23 10:35:00,
2013-01-23 05:40:00,-6.0,-6.4,29.49,WNW,292,1.0,10.0,98,0.00,,,0.00,Weather View 32 v70,2013-01-23 10:40:00,
2013-01-23 05:45:00,-6.0,-6.4,29.48,WNW,292,4.0,10.0,98,0.00,,,0.00,Weather View 32 v70,2013-01-23 10:45:00,
2013-01-23 05:50:00,-6.0,-6.4,29.48,NW,315,1.0,10.0,98,0.00,,,0.00,Weather View 32 v70,2013-01-23 10:50:00,
2013-01-23 05:55:00,-6.1,-6.5,29.49,NNW,337,3.0,10.0,98,0.00,,,0.00,Weather View 32 v70,2013-01-23 10:55:00,
2013-01-23 06:00:00,-6.3,-6.7,29.50,NW,315,6.0,10.0,98,0.00,,,0.00,Weather View 32 v70,2013-01-23 11:00:00,
2013-01-23 06:05:00,-6.3,-6.7,29.50,NW,315,1.0,10.0,98,0.00,,,0.00,Weather View 32 v70,2013-01-23 11:05:00,
2013-01-23 06:10:00,-6.6,-7.0,29.50,NNW,337,0.0,10.0,98,0.00,,,0.00,Weather View 32 v70,2013-01-23 11:10:00,
2013-01-23 06:15:00,-6.7,-6.9,29.50,NNW,337,0.0,10.0,99,0.00,,,0.00,Weather View 32 v70,2013-01-23 11:15:00,
2013-01-23 06:20:00,-7.0,-7.0,29.50,North,360,0.0,10.0,100,0.00,,,0.00,Weather View 32 v70,2013-01-23 11:20:00,
2013-01-23 06:25:00,-7.1,-7.1,29.49,NNW,337,1.0,10.0,100,0.00,,,0.00,Weather View 32 v70,2013-01-23 11:25:00,
2013-01-23 06:30:00,-7.2,-7.2,29.50,NNW,337,1.0,10.0,100,0.00,,,0.00,Weather View 32 v70,2013-01-23 11:30:00,
2013-01-23 06:35:00,-7.6,-7.6,29.50,NW,315,3.0,10.0,100,0.00,,,0.00,Weather View 32 v70,2013-01-23 11:35:00,
2013-01-23 06:40:00,-7.6,-7.6,29.50,WNW,292,0.0,10.0,100,0.00,,,0.00,Weather View 32 v70,2013-01-23 11:40:00,
2013-01-23 06:45:00,-7.7,-7.7,29.50,SSW,202,0.0,10.0,100,0.00,,,0.00,Weather View 32 v70,2013-01-23 11:45:00,
2013-01-23 06:50:00,-8.2,-8.2,29.50,NNW,337,0.0,7.0,100,0.00,,,0.00,Weather View 32 v70,2013-01-23 11:50:00,
2013-01-23 06:55:00,-8.6,-8.6,29.49,SSE,157,0.0,7.0,100,0.00,,,0.00,Weather View 32 v70,2013-01-23 11:55:00,
2013-01-23 07:00:00,-9.1,-9.1,29.49,SSE,157,0.0,7.0,100,0.00,,,0.00,Weather View 32 v70,2013-01-23 12:00:00,
2013-01-23 07:05:00,-9.6,-9.6,29.49,NNE,22,0.0,7.0,100,0.00,,,0.00,Weather View 32 v70,2013-01-23 12:05:00,
2013-01-23 07:10:00,-9.7,-9.7,29.49,South,180,2.0,7.0,100,0.00,,,0.00,Weather View 32 v70,2013-01-23 12:10:00,
2013-01-23 07:15:00,-9.9,-9.9,29.49,SE,135,0.0,6.0,100,0.00,,,0.00,Weather View 32 v70,2013-01-23 12:15:00,
2013-01-23 07:20:00,-9.9,-9.9,29.53,SE,135,0.0,6.0,100,0.00,,,0.00,Weather View 32 v70,2013-01-23 12:20:00,
2013-01-23 07:25:00,-10.0,-10.0,29.53,SE,135,0.0,6.0,100,0.00,,,0.00,Weather View 32 v70,2013-01-23 12:25:00,
2013-01-23 07:30:00,-10.2,-10.2,29.53,SSE,157,0.0,6.0,100,0.00,,,0.00,Weather View 32 v70,2013-01-23 12:30:00,
2013-01-23 07:35:00,-9.8,-9.8,29.53,ESE,112,2.0,6.0,100,0.00,,,0.00,Weather View 32 v70,2013-01-23 12:35:00,
2013-01-23 07:40:00,-9.6,-9.6,29.53,ESE,112,0.0,6.0,100,0.00,,,0.00,Weather View 32 v70,2013-01-23 12:40:00,
2013-01-23 07:45:00,-9.6,-9.6,29.53,SSE,157,0.0,6.0,100,0.00,,,0.00,Weather View 32 v70,2013-01-23 12:45:00,
2013-01-23 07:50:00,-9.7,-9.7,29.53,East,90,0.0,6.0,100,0.00,,,0.00,Weather View 32 v70,2013-01-23 12:50:00,
2013-01-23 07:55:00,-8.8,-8.8,29.53,East,90,3.0,6.0,100,0.00,,,0.00,Weather View 32 v70,2013-01-23 12:55:00,
2013-01-23 08:00:00,-8.3,-8.3,29.53,ENE,67,0.0,6.0,100,0.00,,,0.00,Weather View 32 v70,2013-01-23 13:00:00,
2013-01-23 08:05:00,-8.3,-8.3,29.54,SE,135,2.0,6.0,100,0.00,,,0.00,Weather View 32 v70,2013-01-23 13:05:00,
2013-01-23 08:10:00,-8.2,-8.2,29.54,SE,135,0.0,6.0,100,0.00,,,0.00,Weather View 32 v70,2013-01-23 13:10:00,
2013-01-23 08:15:00,-6.7,-6.7,29.54,ESE,112,0.0,6.0,100,0.00,,,0.00,Weather View 32 v70,2013-01-23 13:15:00,
2013-01-23 08:20:00,-4.7,-4.7,29.54,ESE,112,0.0,6.0,100,0.00,,,0.00,Weather View 32 v70,2013-01-23 13:20:00,
2013-01-23 08:25:00,-3.0,-3.0,29.53,NNW,337,0.0,6.0,100,0.00,,,0.00,Weather View 32 v70,2013-01-23 13:25:00,
2013-01-23 08:30:00,-1.9,-2.1,29.53,North,360,0.0,6.0,99,0.00,,,0.00,Weather View 32 v70,2013-01-23 13:30:00,
2013-01-23 08:35:00,-1.0,-1.4,29.54,North,360,0.0,6.0,98,0.00,,,0.00,Weather View 32 v70,2013-01-23 13:35:00,
2013-01-23 08:40:00,-0.1,-1.0,29.54,North,360,0.0,6.0,96,0.00,,,0.00,Weather View 32 v70,2013-01-23 13:40:00,
2013-01-23 08:45:00,0.3,-1.9,29.53,NNW,337,2.0,6.0,90,0.00,,,0.00,Weather View 32 v70,2013-01-23 13:45:00,
2013-01-23 08:50:00,0.3,-3.4,29.53,WNW,292,2.0,6.0,84,0.00,,,0.00,Weather View 32 v70,2013-01-23 13:50:00,
2013-01-23 08:55:00,0.4,-4.3,29.53,North,360,0.0,6.0,80,0.00,,,0.00,Weather View 32 v70,2013-01-23 13:55:00,
2013-01-23 09:00:00,1.0,-3.7,29.53,NNE,22,0.0,6.0,80,0.00,,,0.00,Weather View 32 v70,2013-01-23 14:00:00,
2013-01-23 09:05:00,1.3,-4.5,29.54,NNW,337,0.0,6.0,76,0.00,,,0.00,Weather View 32 v70,2013-01-23 14:05:00,
2013-01-23 09:10:00,1.2,-4.6,29.54,North,360,0.0,6.0,76,0.00,,,0.00,Weather View 32 v70,2013-01-23 14:10:00,
2013-01-23 09:15:00,1.9,-4.5,29.54,NNE,22,4.0,6.0,74,0.00,,,0.00,Weather View 32 v70,2013-01-23 14:15:00,
2013-01-23 09:20:00,1.8,-5.1,29.54,NW,315,4.0,6.0,72,0.00,,,0.00,Weather View 32 v70,2013-01-23 14:20:00,
2013-01-23 09:25:00,1.6,-5.9,29.54,NNE,22,3.0,7.0,70,0.00,,,0.00,Weather View 32 v70,2013-01-23 14:25:00,
2013-01-23 09:30:00,1.4,-5.2,29.54,NNW,337,4.0,7.0,73,0.00,,,0.00,Weather View 32 v70,2013-01-23 14:30:00,
2013-01-23 09:35:00,0.6,-6.6,29.55,NNE,22,3.0,9.0,71,0.00,,,0.00,Weather View 32 v70,2013-01-23 14:35:00,
2013-01-23 09:40:00,1.0,-5.9,29.55,NNE,22,2.0,9.0,72,0.00,,,0.00,Weather View 32 v70,2013-01-23 14:40:00,
2013-01-23 09:45:00,1.2,-6.0,29.55,NNE,22,1.0,9.0,71,0.00,,,0.00,Weather View 32 v70,2013-01-23 14:45:00,
2013-01-23 09:50:00,0.9,-6.9,29.55,NNE,22,0.0,9.0,69,0.00,,,0.00,Weather View 32 v70,2013-01-23 14:50:00,
2013-01-23 09:55:00,1.6,-6.8,29.55,NNE,22,0.0,9.0,67,0.00,,,0.00,Weather View 32 v70,2013-01-23 14:55:00,
2013-01-23 10:00:00,2.0,-7.0,29.56,NNW,337,2.0,9.0,65,0.00,,,0.00,Weather View 32 v70,2013-01-23 15:00:00,
2013-01-23 10:05:00,2.0,-7.4,29.56,NNW,337,0.0,10.0,64,0.00,,,0.00,Weather View 32 v70,2013-01-23 15:05:00,
2013-01-23 10:10:00,1.6,-8.4,29.56,NNW,337,3.0,10.0,62,0.00,,,0.00,Weather View 32 v70,2013-01-23 15:10:00,
2013-01-23 10:15:00,0.4,-9.9,29.56,NNE,22,4.0,12.0,61,0.00,,,0.00,Weather View 32 v70,2013-01-23 15:15:00,
2013-01-23 10:20:00,1.0,-9.0,29.56,NE,45,4.0,12.0,62,0.00,,,0.00,Weather View 32 v70,2013-01-23 15:20:00,
2013-01-23 10:25:00,1.0,-9.0,29.56,NNW,337,5.0,12.0,62,0.00,,,0.00,Weather View 32 v70,2013-01-23 15:25:00,
2013-01-23 10:30:00,1.2,-9.1,29.56,NNE,22,0.0,12.0,61,0.00,,,0.00,Weather View 32 v70,2013-01-23 15:30:00,
2013-01-23 10:35:00,1.4,-8.9,29.56,NNW,337,9.0,12.0,61,0.00,,,0.00,Weather View 32 v70,2013-01-23 15:35:00,
2013-01-23 10:41:00,1.4,-8.6,29.56,North,360,2.0,12.0,62,0.00,,,0.00,Weather View 32 v70,2013-01-23 15:41:00,
2013-01-23 10:46:00,2.0,-7.7,29.56,ESE,112,0.0,12.0,63,0.00,,,0.00,Weather View 32 v70,2013-01-23 15:46:00,
2013-01-23 10:51:00,2.1,-7.6,29.56,NNW,337,0.0,12.0,63,0.00,,,0.00,Weather View 32 v70,2013-01-23 15:51:00,
2013-01-23 10:56:00,3.1,-6.6,29.56,NW,315,0.0,12.0,63,0.00,,,0.00,Weather View 32 v70,2013-01-23 15:56:00,
2013-01-23 11:01:00,2.3,-9.1,29.56,NW,315,0.0,12.0,58,0.00,,,0.00,Weather View 32 v70,2013-01-23 16:01:00,
2013-01-23 11:06:00,2.6,-7.8,29.56,NNE,22,0.0,12.0,61,0.00,,,0.00,Weather View 32 v70,2013-01-23 16:06:00,
2013-01-23 11:11:00,2.8,-7.6,29.55,NNW,337,4.0,12.0,61,0.00,,,0.00,Weather View 32 v70,2013-01-23 16:11:00,
2013-01-23 11:16:00,2.4,-8.6,29.55,NNW,337,1.0,11.0,59,0.00,,,0.00,Weather View 32 v70,2013-01-23 16:16:00,
2013-01-23 11:21:00,2.6,-8.1,29.55,NE,45,5.0,11.0,60,0.00,,,0.00,Weather View 32 v70,2013-01-23 16:21:00,
2013-01-23 11:26:00,2.6,-7.1,29.55,NNW,337,7.0,11.0,63,0.00,,,0.00,Weather View 32 v70,2013-01-23 16:26:00,
2013-01-23 11:31:00,2.8,-7.3,29.55,NNW,337,2.0,11.0,62,0.00,,,0.00,Weather View 32 v70,2013-01-23 16:31:00,
2013-01-23 11:36:00,2.9,-7.2,29.55,NNE,22,0.0,11.0,62,0.00,,,0.00,Weather View 32 v70,2013-01-23 16:36:00,
2013-01-23 11:41:00,3.9,-5.9,29.55,NNE,22,0.0,11.0,63,0.00,,,0.00,Weather View 32 v70,2013-01-23 16:41:00,
2013-01-23 11:46:00,3.4,-7.4,29.55,NNE,22,5.0,11.0,60,0.00,,,0.00,Weather View 32 v70,2013-01-23 16:46:00,
2013-01-23 11:51:00,3.3,-6.8,29.55,North,360,0.0,11.0,62,0.00,,,0.00,Weather View 32 v70,2013-01-23 16:51:00,
2013-01-23 11:56:00,4.0,-6.4,29.54,NNW,337,1.0,11.0,61,0.00,,,0.00,Weather View 32 v70,2013-01-23 16:56:00,
2013-01-23 12:01:00,4.8,-5.4,29.54,NNW,337,4.0,11.0,62,0.00,,,0.00,Weather View 32 v70,2013-01-23 17:01:00,
2013-01-23 12:06:00,3.8,-7.0,29.54,North,360,0.0,11.0,60,0.00,,,0.00,Weather View 32 v70,2013-01-23 17:06:00,
2013-01-23 12:11:00,3.8,-6.6,29.54,NNE,22,0.0,11.0,61,0.00,,,0.00,Weather View 32 v70,2013-01-23 17:11:00,
2013-01-23 12:16:00,3.9,-6.2,29.54,North,360,0.0,11.0,62,0.00,,,0.00,Weather View 32 v70,2013-01-23 17:16:00,
2013-01-23 12:21:00,4.9,-5.3,29.54,SE,135,0.0,11.0,62,0.00,,,0.00,Weather View 32 v70,2013-01-23 17:21:00,
2013-01-23 12:26:00,5.6,-5.3,29.53,WNW,292,3.0,11.0,60,0.00,,,0.00,Weather View 32 v70,2013-01-23 17:26:00,
2013-01-23 12:31:00,3.9,-6.5,29.52,NNW,337,6.0,12.0,61,0.00,,,0.00,Weather View 32 v70,2013-01-23 17:31:00,
2013-01-23 12:36:00,4.2,-5.9,29.53,NW,315,0.0,12.0,62,0.00,,,0.00,Weather View 32 v70,2013-01-23 17:36:00,
2013-01-23 12:41:00,4.2,-5.9,29.53,NNW,337,7.0,12.0,62,0.00,,,0.00,Weather View 32 v70,2013-01-23 17:41:00,
2013-01-23 12:46:00,4.1,-6.0,29.53,NNW,337,1.0,12.0,62,0.00,,,0.00,Weather View 32 v70,2013-01-23 17:46:00,
2013-01-23 12:51:00,4.8,-5.7,29.53,North,360,3.0,12.0,61,0.00,,,0.00,Weather View 32 v70,2013-01-23 17:51:00,
2013-01-23 12:56:00,5.1,-5.7,29.52,NNE,22,0.0,12.0,60,0.00,,,0.00,Weather View 32 v70,2013-01-23 17:56:00,
2013-01-23 13:01:00,4.6,-6.9,29.53,WSW,247,0.0,12.0,58,0.00,,,0.00,Weather View 32 v70,2013-01-23 18:01:00,
2013-01-23 13:06:00,4.3,-6.5,29.52,ENE,67,0.0,12.0,60,0.00,,,0.00,Weather View 32 v70,2013-01-23 18:06:00,
2013-01-23 13:11:00,5.4,-5.1,29.51,SSW,202,0.0,12.0,61,0.00,,,0.00,Weather View 32 v70,2013-01-23 18:11:00,
2013-01-23 13:16:00,5.9,-5.3,29.50,NNE,22,4.0,12.0,59,0.00,,,0.00,Weather View 32 v70,2013-01-23 18:16:00,
2013-01-23 13:21:00,5.7,-6.2,29.51,North,360,1.0,12.0,57,0.00,,,0.00,Weather View 32 v70,2013-01-23 18:21:00,
2013-01-23 13:26:00,5.9,-6.0,29.51,NNE,22,0.0,12.0,57,0.00,,,0.00,Weather View 32 v70,2013-01-23 18:26:00,
2013-01-23 13:31:00,5.0,-6.2,29.51,NNW,337,2.0,9.0,59,0.00,,,0.00,Weather View 32 v70,2013-01-23 18:31:00,
2013-01-23 13:36:00,5.4,-5.5,29.51,North,360,0.0,9.0,60,0.00,,,0.00,Weather View 32 v70,2013-01-23 18:36:00,
2013-01-23 13:41:00,5.4,-6.2,29.51,NNW,337,6.0,9.0,58,0.00,,,0.00,Weather View 32 v70,2013-01-23 18:41:00,
2013-01-23 13:46:00,6.1,-5.1,29.51,NNW,337,2.0,9.0,59,0.00,,,0.00,Weather View 32 v70,2013-01-23 18:46:00,
2013-01-23 13:51:00,6.4,-5.6,29.50,NNE,22,0.0,9.0,57,0.00,,,0.00,Weather View 32 v70,2013-01-23 18:51:00,
2013-01-23 13:56:00,6.3,-6.0,29.50,NNW,337,4.0,9.0,56,0.00,,,0.00,Weather View 32 v70,2013-01-23 18:56:00,
2013-01-23 14:01:00,5.6,-6.7,29.50,NNW,337,8.0,9.0,56,0.00,,,0.00,Weather View 32 v70,2013-01-23 19:01:00,
2013-01-23 14:06:00,5.9,-5.7,29.50,NW,315,0.0,9.0,58,0.00,,,0.00,Weather View 32 v70,2013-01-23 19:06:00,
2013-01-23 14:11:00,6.1,-5.9,29.50,West,270,1.0,9.0,57,0.00,,,0.00,Weather View 32 v70,2013-01-23 19:11:00,
2013-01-23 14:16:00,6.0,-5.6,29.50,NNW,337,0.0,9.0,58,0.00,,,0.00,Weather View 32 v70,2013-01-23 19:16:00,
2013-01-23 14:21:00,6.4,-4.9,29.50,North,360,4.0,9.0,59,0.00,,,0.00,Weather View 32 v70,2013-01-23 19:21:00,
2013-01-23 14:26:00,6.0,-5.6,29.51,NNW,337,0.0,9.0,58,0.00,,,0.00,Weather View 32 v70,2013-01-23 19:26:00,
2013-01-23 14:31:00,6.9,-4.4,29.50,NNW,337,2.0,9.0,59,0.00,,,0.00,Weather View 32 v70,2013-01-23 19:31:00,
2013-01-23 14:36:00,5.7,-5.2,29.51,North,360,4.0,9.0,60,0.00,,,0.00,Weather View 32 v70,2013-01-23 19:36:00,
2013-01-23 14:41:00,6.0,-5.2,29.51,ENE,67,0.0,9.0,59,0.00,,,0.00,Weather View 32 v70,2013-01-23 19:41:00,
2013-01-23 14:46:00,6.4,-4.9,29.51,NNE,22,0.0,9.0,59,0.00,,,0.00,Weather View 32 v70,2013-01-23 19:46:00,
2013-01-23 14:51:00,6.4,-4.9,29.51,NNE,22,0.0,9.0,59,0.00,,,0.00,Weather View 32 v70,2013-01-23 19:51:00,
2013-01-23 14:56:00,7.2,-3.8,29.51,NNE,22,0.0,9.0,60,0.00,,,0.00,Weather View 32 v70,2013-01-23 19:56:00,
2013-01-23 15:01:00,6.3,-5.7,29.51,NNE,22,2.0,9.0,57,0.00,,,0.00,Weather View 32 v70,2013-01-23 20:01:00,
2013-01-23 15:06:00,6.4,-4.9,29.52,North,360,0.0,9.0,59,0.00,,,0.00,Weather View 32 v70,2013-01-23 20:06:00,
2013-01-23 15:11:00,6.4,-5.2,29.52,North,360,5.0,9.0,58,0.00,,,0.00,Weather View 32 v70,2013-01-23 20:11:00,
2013-01-23 15:16:00,5.7,-6.6,29.52,NW,315,1.0,8.0,56,0.00,,,0.00,Weather View 32 v70,2013-01-23 20:16:00,
2013-01-23 15:21:00,5.8,-5.8,29.52,NW,315,2.0,8.0,58,0.00,,,0.00,Weather View 32 v70,2013-01-23 20:21:00,
2013-01-23 15:26:00,6.1,-5.1,29.52,NNW,337,0.0,8.0,59,0.00,,,0.00,Weather View 32 v70,2013-01-23 20:26:00,
2013-01-23 15:31:00,6.3,-5.3,29.52,NNE,22,0.0,8.0,58,0.00,,,0.00,Weather View 32 v70,2013-01-23 20:31:00,
2013-01-23 15:36:00,6.4,-5.2,29.52,NNW,337,0.0,8.0,58,0.00,,,0.00,Weather View 32 v70,2013-01-23 20:36:00,
2013-01-23 15:41:00,6.0,-5.2,29.52,NNW,337,0.0,8.0,59,0.00,,,0.00,Weather View 32 v70,2013-01-23 20:41:00,
2013-01-23 15:46:00,5.3,-5.6,29.51,North,360,1.0,7.0,60,0.00,,,0.00,Weather View 32 v70,2013-01-23 20:46:00,
2013-01-23 15:51:00,5.1,-5.7,29.51,North,360,2.0,7.0,60,0.00,,,0.00,Weather View 32 v70,2013-01-23 20:51:00,
2013-01-23 15:56:00,4.9,-5.3,29.52,NNW,337,2.0,7.0,62,0.00,,,0.00,Weather View 32 v70,2013-01-23 20:56:00,
2013-01-23 16:01:00,4.9,-5.3,29.52,NW,315,3.0,7.0,62,0.00,,,0.00,Weather View 32 v70,2013-01-23 21:01:00,
2013-01-23 16:06:00,4.4,-5.4,29.52,NNW,337,0.0,7.0,63,0.00,,,0.00,Weather View 32 v70,2013-01-23 21:06:00,
2013-01-23 16:11:00,3.3,-6.4,29.52,NNW,337,0.0,7.0,63,0.00,,,0.00,Weather View 32 v70,2013-01-23 21:11:00,
2013-01-23 16:16:00,2.0,-6.7,29.52,NNW,337,2.0,6.0,66,0.00,,,0.00,Weather View 32 v70,2013-01-23 21:16:00,
2013-01-23 16:21:00,0.9,-6.9,29.52,NNW,337,0.0,6.0,69,0.00,,,0.00,Weather View 32 v70,2013-01-23 21:21:00,
2013-01-23 16:26:00,0.1,-7.3,29.52,North,360,0.0,6.0,70,0.00,,,0.00,Weather View 32 v70,2013-01-23 21:26:00,
2013-01-23 16:31:00,-0.6,-7.2,29.54,NW,315,0.0,6.0,73,0.00,,,0.00,Weather View 32 v70,2013-01-23 21:31:00,
2013-01-23 16:36:00,-1.0,-7.0,29.54,WNW,292,0.0,6.0,75,0.00,,,0.00,Weather View 32 v70,2013-01-23 21:36:00,
2013-01-23 16:41:00,-1.6,-7.0,29.54,WNW,292,0.0,6.0,77,0.00,,,0.00,Weather View 32 v70,2013-01-23 21:41:00,
2013-01-23 16:46:00,-1.9,-7.1,29.54,WNW,292,0.0,6.0,78,0.00,,,0.00,Weather View 32 v70,2013-01-23 21:46:00,
2013-01-23 16:51:00,-2.6,-8.5,29.54,SSE,157,0.0,6.0,75,0.00,,,0.00,Weather View 32 v70,2013-01-23 21:51:00,
2013-01-23 16:56:00,-3.3,-9.0,29.54,SSE,157,0.0,6.0,76,0.00,,,0.00,Weather View 32 v70,2013-01-23 21:56:00,
2013-01-23 17:01:00,-3.8,-10.0,29.54,South,180,0.0,5.0,74,0.00,,,0.00,Weather View 32 v70,2013-01-23 22:01:00,
2013-01-23 17:06:00,-4.2,-9.3,29.54,South,180,0.0,5.0,78,0.00,,,0.00,Weather View 32 v70,2013-01-23 22:06:00,
2013-01-23 17:11:00,-4.6,-9.4,29.54,SSE,157,0.0,5.0,79,0.00,,,0.00,Weather View 32 v70,2013-01-23 22:11:00,
2013-01-23 17:16:00,-4.8,-8.9,29.53,SSE,157,0.0,4.0,82,0.00,,,0.00,Weather View 32 v70,2013-01-23 22:16:00,
2013-01-23 17:21:00,-5.2,-10.3,29.54,SSE,157,0.0,4.0,78,0.00,,,0.00,Weather View 32 v70,2013-01-23 22:21:00,
2013-01-23 17:26:00,-5.2,-8.1,29.54,SSE,157,0.0,4.0,87,0.00,,,0.00,Weather View 32 v70,2013-01-23 22:26:00,
2013-01-23 17:31:00,-5.3,-9.1,29.54,SSE,157,0.0,4.0,83,0.00,,,0.00,Weather View 32 v70,2013-01-23 22:31:00,
2013-01-23 17:36:00,-5.6,-9.9,29.54,SSE,157,0.0,4.0,81,0.00,,,0.00,Weather View 32 v70,2013-01-23 22:36:00,
2013-01-23 17:41:00,-5.8,-10.9,29.54,South,180,0.0,4.0,78,0.00,,,0.00,Weather View 32 v70,2013-01-23 22:41:00,
2013-01-23 17:46:00,-6.0,-10.8,29.54,South,180,0.0,3.0,79,0.00,,,0.00,Weather View 32 v70,2013-01-23 22:46:00,
2013-01-23 17:51:00,-6.1,-10.9,29.55,South,180,0.0,3.0,79,0.00,,,0.00,Weather View 32 v70,2013-01-23 22:51:00,
2013-01-23 17:56:00,-6.2,-11.0,29.55,SSW,202,0.0,3.0,79,0.00,,,0.00,Weather View 32 v70,2013-01-23 22:56:00,
2013-01-23 18:01:00,-6.6,-11.4,29.55,SSW,202,0.0,3.0,79,0.00,,,0.00,Weather View 32 v70,2013-01-23 23:01:00,
2013-01-23 18:06:00,-6.7,-11.2,29.55,SSW,202,0.0,3.0,80,0.00,,,0.00,Weather View 32 v70,2013-01-23 23:06:00,
2013-01-23 18:11:00,-6.7,-11.0,29.55,SSE,157,0.0,3.0,81,0.00,,,0.00,Weather View 32 v70,2013-01-23 23:11:00,
2013-01-23 18:16:00,-6.7,-10.5,29.55,SSE,157,0.0,3.0,83,0.00,,,0.00,Weather View 32 v70,2013-01-23 23:16:00,
2013-01-23 18:21:00,-6.1,-7.4,29.55,SSE,157,0.0,3.0,94,0.00,,,0.00,Weather View 32 v70,2013-01-23 23:21:00,
2013-01-23 18:26:00,-5.9,-7.0,29.54,SSE,157,2.0,3.0,95,0.00,,,0.00,Weather View 32 v70,2013-01-23 23:26:00,
2013-01-23 18:31:00,-5.7,-6.3,29.54,SSE,157,0.0,3.0,97,0.00,,,0.00,Weather View 32 v70,2013-01-23 23:31:00,
2013-01-23 18:36:00,-5.3,-5.9,29.54,SSE,157,0.0,3.0,97,0.00,,,0.00,Weather View 32 v70,2013-01-23 23:36:00,
2013-01-23 18:42:00,-5.6,-6.7,29.54,SE,135,0.0,3.0,95,0.00,,,0.00,Weather View 32 v70,2013-01-23 23:42:00,
2013-01-23 18:47:00,-5.6,-6.0,29.54,SE,135,1.0,3.0,98,0.00,,,0.00,Weather View 32 v70,2013-01-23 23:47:00,
2013-01-23 18:52:00,-5.4,-6.2,29.54,SE,135,0.0,3.0,96,0.00,,,0.00,Weather View 32 v70,2013-01-23 23:52:00,
2013-01-23 18:57:00,-5.7,-6.3,29.54,ESE,112,0.0,3.0,97,0.00,,,0.00,Weather View 32 v70,2013-01-23 23:57:00,
2013-01-23 19:02:00,-5.7,-6.3,29.54,ESE,112,0.0,3.0,97,0.00,,,0.00,Weather View 32 v70,2013-01-24 00:02:00,
2013-01-23 19:07:00,-6.0,-6.6,29.54,ESE,112,0.0,3.0,97,0.00,,,0.00,Weather View 32 v70,2013-01-24 00:07:00,
2013-01-23 19:12:00,-5.9,-6.3,29.54,ESE,112,0.0,3.0,98,0.00,,,0.00,Weather View 32 v70,2013-01-24 00:12:00,
2013-01-23 19:17:00,-5.6,-6.4,29.54,ESE,112,1.0,3.0,96,0.00,,,0.00,Weather View 32 v70,2013-01-24 00:17:00,
2013-01-23 19:22:00,-5.6,-6.7,29.54,SE,135,1.0,3.0,95,0.00,,,0.00,Weather View 32 v70,2013-01-24 00:22:00,
2013-01-23 19:27:00,-5.7,-7.0,29.54,SE,135,1.0,3.0,94,0.00,,,0.00,Weather View 32 v70,2013-01-24 00:27:00,
2013-01-23 19:32:00,-6.0,-7.3,29.54,SE,135,0.0,3.0,94,0.00,,,0.00,Weather View 32 v70,2013-01-24 00:32:00,
2013-01-23 19:37:00,-6.4,-7.5,29.55,SSE,157,1.0,3.0,95,0.00,,,0.00,Weather View 32 v70,2013-01-24 00:37:00,
2013-01-23 19:42:00,-6.2,-7.0,29.55,ESE,112,0.0,3.0,96,0.00,,,0.00,Weather View 32 v70,2013-01-24 00:42:00,
2013-01-23 19:47:00,-6.2,-7.3,29.55,SE,135,0.0,3.0,95,0.00,,,0.00,Weather View 32 v70,2013-01-24 00:47:00,
2013-01-23 19:52:00,-6.7,-8.0,29.55,SSE,157,0.0,3.0,94,0.00,,,0.00,Weather View 32 v70,2013-01-24 00:52:00,
2013-01-23 19:57:00,-6.9,-8.0,29.55,SSE,157,0.0,3.0,95,0.00,,,0.00,Weather View 32 v70,2013-01-24 00:57:00,
2013-01-23 20:02:00,-6.6,-7.4,29.55,SSE,157,0.0,3.0,96,0.00,,,0.00,Weather View 32 v70,2013-01-24 01:02:00,
2013-01-23 20:07:00,-7.1,-8.1,29.55,SSE,157,0.0,3.0,95,0.00,,,0.00,Weather View 32 v70,2013-01-24 01:07:00,
2013-01-23 20:12:00,-7.4,-8.2,29.55,SSE,157,0.0,3.0,96,0.00,,,0.00,Weather View 32 v70,2013-01-24 01:12:00,
2013-01-23 20:17:00,-7.7,-8.5,29.55,SSE,157,0.0,3.0,96,0.00,,,0.00,Weather View 32 v70,2013-01-24 01:17:00,
2013-01-23 20:22:00,-7.8,-8.4,29.55,SSE,157,0.0,3.0,97,0.00,,,0.00,Weather View 32 v70,2013-01-24 01:22:00,
2013-01-23 20:27:00,-7.9,-7.9,29.55,SE,135,2.0,3.0,100,0.00,,,0.00,Weather View 32 v70,2013-01-24 01:27:00,
2013-01-23 20:32:00,-7.6,-7.6,29.55,SE,135,0.0,3.0,100,0.00,,,0.00,Weather View 32 v70,2013-01-24 01:32:00,
2013-01-23 20:37:00,-6.9,-6.9,29.55,SE,135,0.0,3.0,100,0.00,,,0.00,Weather View 32 v70,2013-01-24 01:37:00,
2013-01-23 20:42:00,-6.6,-7.0,29.55,SE,135,3.0,3.0,98,0.00,,,0.00,Weather View 32 v70,2013-01-24 01:42:00,
2013-01-23 20:47:00,-6.3,-7.1,29.55,SE,135,3.0,3.0,96,0.00,,,0.00,Weather View 32 v70,2013-01-24 01:47:00,
2013-01-23 20:52:00,-6.6,-7.7,29.55,SSE,157,2.0,3.0,95,0.00,,,0.00,Weather View 32 v70,2013-01-24 01:52:00,
2013-01-23 20:57:00,-6.8,-7.9,29.55,SSE,157,1.0,3.0,95,0.00,,,0.00,Weather View 32 v70,2013-01-24 01:57:00,
2013-01-23 21:02:00,-6.8,-7.6,29.55,SSE,157,1.0,3.0,96,0.00,,,0.00,Weather View 32 v70,2013-01-24 02:02:00,
2013-01-23 21:07:00,-7.0,-8.1,29.55,SSE,157,1.0,3.0,95,0.00,,,0.00,Weather View 32 v70,2013-01-24 02:07:00,
2013-01-23 21:12:00,-7.4,-8.2,29.55,SSE,157,0.0,3.0,96,0.00,,,0.00,Weather View 32 v70,2013-01-24 02:12:00,
2013-01-23 21:17:00,-7.7,-8.3,29.55,SSE,157,1.0,3.0,97,0.00,,,0.00,Weather View 32 v70,2013-01-24 02:17:00,
2013-01-23 21:22:00,-7.7,-8.3,29.54,SSE,157,0.0,3.0,97,0.00,,,0.00,Weather View 32 v70,2013-01-24 02:22:00,
2013-01-23 21:27:00,-8.1,-8.9,29.55,SSE,157,0.0,3.0,96,0.00,,,0.00,Weather View 32 v70,2013-01-24 02:27:00,
2013-01-23 21:32:00,-8.2,-8.8,29.55,SSE,157,0.0,3.0,97,0.00,,,0.00,Weather View 32 v70,2013-01-24 02:32:00,
2013-01-23 21:37:00,-8.1,-8.1,29.54,SSE,157,1.0,3.0,100,0.00,,,0.00,Weather View 32 v70,2013-01-24 02:37:00,
2013-01-23 21:42:00,-7.9,-8.1,29.55,SSE,157,0.0,3.0,99,0.00,,,0.00,Weather View 32 v70,2013-01-24 02:42:00,
2013-01-23 21:47:00,-8.3,-8.7,29.55,SSE,157,0.0,3.0,98,0.00,,,0.00,Weather View 32 v70,2013-01-24 02:47:00,
2013-01-23 21:52:00,-8.3,-8.5,29.55,SSE,157,0.0,3.0,99,0.00,,,0.00,Weather View 32 v70,2013-01-24 02:52:00,
2013-01-23 21:57:00,-8.3,-8.3,29.54,SE,135,2.0,3.0,100,0.00,,,0.00,Weather View 32 v70,2013-01-24 02:57:00,
2013-01-23 22:02:00,-8.1,-8.1,29.54,SSE,157,2.0,3.0,100,0.00,,,0.00,Weather View 32 v70,2013-01-24 03:02:00,
2013-01-23 22:07:00,-8.6,-8.8,29.54,SSE,157,1.0,3.0,99,0.00,,,0.00,Weather View 32 v70,2013-01-24 03:07:00,
2013-01-23 22:12:00,-8.8,-9.0,29.54,SSE,157,0.0,3.0,99,0.00,,,0.00,Weather View 32 v70,2013-01-24 03:12:00,
2013-01-23 22:17:00,-8.7,-8.7,29.54,SSE,157,1.0,3.0,100,0.00,,,0.00,Weather View 32 v70,2013-01-24 03:17:00,
2013-01-23 22:22:00,-8.6,-8.6,29.54,SSE,157,2.0,3.0,100,0.00,,,0.00,Weather View 32 v70,2013-01-24 03:22:00,
2013-01-23 22:27:00,-8.4,-8.4,29.54,SSE,157,1.0,3.0,100,0.00,,,0.00,Weather View 32 v70,2013-01-24 03:27:00,
2013-01-23 22:32:00,-7.8,-7.8,29.54,SSE,157,3.0,3.0,100,0.00,,,0.00,Weather View 32 v70,2013-01-24 03:32:00,
2013-01-23 22:37:00,-7.7,-7.7,29.54,SE,135,1.0,3.0,100,0.00,,,0.00,Weather View 32 v70,2013-01-24 03:37:00,
2013-01-23 22:42:00,-7.6,-7.6,29.54,SE,135,2.0,3.0,100,0.00,,,0.00,Weather View 32 v70,2013-01-24 03:42:00,
2013-01-23 22:47:00,-7.7,-7.7,29.54,SSE,157,2.0,3.0,100,0.00,,,0.00,Weather View 32 v70,2013-01-24 03:47:00,
2013-01-23 22:52:00,-8.1,-8.1,29.54,SSE,157,1.0,3.0,100,0.00,,,0.00,Weather View 32 v70,2013-01-24 03:52:00,
2013-01-23 22:57:00,-8.0,-8.0,29.54,SSE,157,2.0,3.0,100,0.00,,,0.00,Weather View 32 v70,2013-01-24 03:57:00,
2013-01-23 23:02:00,-8.2,-8.2,29.54,SSE,157,1.0,3.0,100,0.00,,,0.00,Weather View 32 v70,2013-01-24 04:02:00,
2013-01-23 23:07:00,-8.4,-8.4,29.54,SSE,157,1.0,3.0,100,0.00,,,0.00,Weather View 32 v70,2013-01-24 04:07:00,
2013-01-23 23:12:00,-8.6,-8.6,29.54,SSE,157,0.0,3.0,100,0.00,,,0.00,Weather View 32 v70,2013-01-24 04:12:00,
2013-01-23 23:17:00,-8.8,-9.0,29.54,South,180,1.0,3.0,99,0.00,,,0.00,Weather View 32 v70,2013-01-24 04:17:00,
2013-01-23 23:22:00,-8.7,-8.9,29.55,SSW,202,1.0,3.0,99,0.00,,,0.00,Weather View 32 v70,2013-01-24 04:22:00,
2013-01-23 23:27:00,-8.7,-8.9,29.55,South,180,1.0,3.0,99,0.00,,,0.00,Weather View 32 v70,2013-01-24 04:27:00,
2013-01-23 23:32:00,-8.4,-8.4,29.55,SSE,157,0.0,3.0,100,0.00,,,0.00,Weather View 32 v70,2013-01-24 04:32:00,
2013-01-23 23:37:00,-8.2,-8.2,29.54,SSE,157,0.0,3.0,100,0.00,,,0.00,Weather View 32 v70,2013-01-24 04:37:00,
2013-01-23 23:42:00,-8.7,-8.7,29.54,SSE,157,0.0,3.0,100,0.00,,,0.00,Weather View 32 v70,2013-01-24 04:42:00,
2013-01-23 23:47:00,-8.7,-8.7,29.54,SSE,157,0.0,3.0,100,0.00,,,0.00,Weather View 32 v70,2013-01-24 04:47:00,
2013-01-23 23:52:00,-8.7,-8.7,29.54,SSE,157,0.0,3.0,100,0.00,,,0.00,Weather View 32 v70,2013-01-24 04:52:00,
2013-01-23 23:57:00,-8.6,-8.6,29.55,ESE,112,0.0,3.0,100,0.00,,,0.00,Weather View 32 v70,2013-01-24 04:57:00,